Time;durP1;ratioP1;P1;durP2;ratioP2;P2;SDS_P1;SDS_P2;PMS_P1;PMS_P2;Temp;Humidity;BMP_temperature;BMP_pressure;BME280_temperature;BME280_humidity;BME280_pressure;Samples;Min_cycle;Max_cycle;Signal;HPM_P1;HPM_P2
2022/04/01 00:02:07;;;;;;;;;;;4.00;1.00;;;;;;5093694;28;20019;-81
2022/04/01 00:04:32;;;;;;;;;;;4.00;1.00;;;;;;5091136;28;19919;-81
2022/04/01 00:06:58;;;;;;;;;;;4.00;1.00;;;;;;5094726;28;19919;-81
2022/04/01 00:09:24;;;;;;;;;;;4.00;1.00;;;;;;5095239;28;19908;-81
2022/04/01 00:11:50;;;;;;;;;;;4.10;1.00;;;;;;5094802;28;19920;-81
2022/04/01 00:14:15;;;;;;;;;;;4.10;1.00;;;;;;5093745;28;19923;-81
2022/04/01 00:16:41;;;;;;;;;;;4.00;1.00;;;;;;5095276;28;19912;-81
2022/04/01 00:19:06;;;;;;;;;;;4.10;1.00;;;;;;5092838;28;19920;-81
2022/04/01 00:21:32;;;;;;;;;;;4.10;1.00;;;;;;5094227;28;20003;-81
2022/04/01 00:23:57;;;;;;;;;;;4.10;1.00;;;;;;5093678;28;19957;-81
2022/04/01 00:26:23;;;;;;;;;;;4.00;1.00;;;;;;5093102;28;19940;-82
2022/04/01 00:28:48;;;;;;;;;;;4.10;1.00;;;;;;5094988;28;19916;-81
2022/04/01 00:31:14;;;;;;;;;;;4.10;1.00;;;;;;5093325;28;19984;-80
2022/04/01 00:33:39;;;;;;;;;;;4.10;1.00;;;;;;5094504;28;19920;-81
2022/04/01 00:36:05;;;;;;;;;;;4.10;1.00;;;;;;5093014;28;20006;-81
2022/04/01 00:38:30;;;;;;;;;;;4.10;1.00;;;;;;5094416;28;19913;-81
2022/04/01 00:40:58;;;;;;;;;;;4.10;1.00;;;;;;5091890;28;19940;-81
2022/04/01 00:43:31;;;;;;;;;;;4.10;1.00;;;;;;5095038;28;20374;-81
2022/04/01 00:45:57;;;;;;;;;;;4.10;1.00;;;;;;5095471;28;19943;-81
2022/04/01 00:48:23;;;;;;;;;;;4.00;1.00;;;;;;5130379;27;20373;-81
2022/04/01 00:50:48;;;;;;;;;;;4.00;1.00;;;;;;5097688;28;19962;-81
2022/04/01 00:53:14;;;;;;;;;;;4.00;1.00;;;;;;5095622;28;19912;-81
2022/04/01 00:55:40;;;;;;;;;;;4.00;1.00;;;;;;5097208;28;19955;-81
2022/04/01 00:58:08;;;;;;;;;;;4.00;1.00;;;;;;5094509;28;20300;-81
2022/04/01 01:00:35;;;;;;;;;;;3.90;1.00;;;;;;5095762;28;19912;-81
2022/04/01 01:03:01;;;;;;;;;;;3.90;1.00;;;;;;5093655;28;20069;-81
2022/04/01 01:05:27;;;;;;;;;;;3.90;1.00;;;;;;5096001;27;20379;-81
2022/04/01 01:07:52;;;;;;;;;;;3.90;1.00;;;;;;5097078;28;20003;-80
2022/04/01 01:10:18;;;;;;;;;;;3.90;1.00;;;;;;5096103;28;19981;-80
2022/04/01 01:12:44;;;;;;;;;;;3.90;1.00;;;;;;5092911;28;19919;-80
2022/04/01 01:15:11;;;;;;;;;;;3.90;1.00;;;;;;5095794;28;20011;-80
2022/04/01 01:17:37;;;;;;;;;;;3.90;1.00;;;;;;5095290;28;20410;-80
2022/04/01 01:20:11;;;;;;;;;;;3.90;1.00;;;;;;5096103;28;19912;-80
2022/04/01 01:22:36;;;;;;;;;;;3.90;1.00;;;;;;5090751;28;20338;-80
2022/04/01 01:25:01;;;;;;;;;;;3.80;1.00;;;;;;5096304;28;19912;-80
2022/04/01 01:27:27;;;;;;;;;;;3.80;1.00;;;;;;5095423;28;20011;-81
2022/04/01 01:29:53;;;;;;;;;;;3.80;1.00;;;;;;5092724;28;19912;-81
2022/04/01 01:32:21;;;;;;;;;;;3.70;1.00;;;;;;5093855;28;19912;-80
2022/04/01 01:34:47;;;;;;;;;;;3.70;1.00;;;;;;5095254;28;19912;-80
2022/04/01 01:37:12;;;;;;;;;;;3.70;1.00;;;;;;5094718;28;19927;-80
2022/04/01 01:39:38;;;;;;;;;;;3.70;1.00;;;;;;5096828;28;19912;-81
2022/04/01 01:42:05;;;;;;;;;;;3.70;1.00;;;;;;5094258;28;19965;-81
2022/04/01 01:44:31;;;;;;;;;;;3.70;1.00;;;;;;5092598;28;19912;-80
2022/04/01 01:46:57;;;;;;;;;;;3.70;1.00;;;;;;5094761;28;19912;-80
2022/04/01 01:49:22;;;;;;;;;;;3.70;1.00;;;;;;5095518;28;20409;-82
2022/04/01 01:54:45;;;;;;;;;;;3.70;1.00;;;;;;5095187;28;19969;-81
2022/04/01 01:57:29;;;;;;;;;;;3.70;1.00;;;;;;5095470;28;20347;-80
2022/04/01 01:59:55;;;;;;;;;;;3.70;1.00;;;;;;5094661;28;20010;-80
2022/04/01 02:02:21;;;;;;;;;;;3.70;1.00;;;;;;5093319;28;19912;-80
2022/04/01 02:04:46;;;;;;;;;;;3.70;1.00;;;;;;5091459;28;19936;-80
2022/04/01 02:07:12;;;;;;;;;;;3.70;1.00;;;;;;5094725;28;19919;-81
2022/04/01 02:09:38;;;;;;;;;;;3.70;1.00;;;;;;5094599;28;20017;-80
2022/04/01 02:12:04;;;;;;;;;;;3.70;1.00;;;;;;5094314;28;20385;-81
2022/04/01 02:14:30;;;;;;;;;;;3.60;1.00;;;;;;5095170;28;19952;-81
2022/04/01 02:16:57;;;;;;;;;;;3.60;1.00;;;;;;5095907;28;19920;-81
2022/04/01 02:19:23;;;;;;;;;;;3.60;1.00;;;;;;5094357;28;19912;-80
2022/04/01 02:21:53;;;;;;;;;;;3.60;1.00;;;;;;5096227;28;20284;-80
2022/04/01 02:24:19;;;;;;;;;;;3.60;1.00;;;;;;5094128;28;20423;-81
2022/04/01 02:26:48;;;;;;;;;;;3.60;1.00;;;;;;5098435;28;20359;-80
2022/04/01 02:29:20;;;;;;;;;;;3.60;1.00;;;;;;5097427;28;19924;-80
2022/04/01 02:31:47;;;;;;;;;;;3.50;1.00;;;;;;5098688;28;20343;-80
2022/04/01 02:34:12;;;;;;;;;;;3.50;1.00;;;;;;5093826;28;19927;-80
2022/04/01 02:36:38;;;;;;;;;;;3.50;1.00;;;;;;5088194;28;19911;-80
2022/04/01 02:39:05;;;;;;;;;;;3.40;1.00;;;;;;5090853;28;19912;-80
2022/04/01 02:41:31;;;;;;;;;;;3.40;1.00;;;;;;5093482;28;19912;-80
2022/04/01 02:44:08;;;;;;;;;;;3.40;1.00;;;;;;5091133;28;19912;-80
2022/04/01 02:46:34;;;;;;;;;;;3.30;1.00;;;;;;5093592;28;19912;-80
2022/04/01 02:49:00;;;;;;;;;;;3.30;1.00;;;;;;5090190;28;19919;-80
2022/04/01 02:51:26;;;;;;;;;;;3.30;1.00;;;;;;5092853;28;19920;-80
2022/04/01 02:53:51;;;;;;;;;;;3.30;1.00;;;;;;5091717;28;19965;-80
2022/04/01 02:56:17;;;;;;;;;;;3.20;1.00;;;;;;5092736;28;19920;-80
2022/04/01 02:58:42;;;;;;;;;;;3.20;1.00;;;;;;5090769;28;20388;-80
2022/04/01 03:01:08;;;;;;;;;;;3.30;1.00;;;;;;5091735;28;19923;-80
2022/04/01 03:03:34;;;;;;;;;;;3.30;1.00;;;;;;5091016;28;19912;-80
2022/04/01 03:05:59;;;;;;;;;;;3.30;1.00;;;;;;5092396;28;19916;-80
2022/04/01 03:08:26;;;;;;;;;;;3.30;1.00;;;;;;5090998;28;19920;-80
2022/04/01 03:10:52;;;;;;;;;;;3.30;1.00;;;;;;5093364;28;19946;-80
2022/04/01 03:13:17;;;;;;;;;;;3.30;1.00;;;;;;5090780;28;19920;-80
2022/04/01 03:15:43;;;;;;;;;;;3.30;1.00;;;;;;5092756;28;19947;-80
2022/04/01 03:18:09;;;;;;;;;;;3.20;99.90;;;;;;5089483;28;20069;-80
2022/04/01 03:20:35;;;;;;;;;;;3.20;99.90;;;;;;5089237;28;19912;-80
2022/04/01 03:23:01;;;;;;;;;;;3.10;99.90;;;;;;5088941;28;19995;-80
2022/04/01 03:25:32;;;;;;;;;;;3.10;99.90;;;;;;5090253;28;20019;-80
2022/04/01 03:27:58;;;;;;;;;;;3.10;99.90;;;;;;5090273;28;20419;-80
2022/04/01 03:30:24;;;;;;;;;;;3.10;99.90;;;;;;5091888;28;19920;-80
2022/04/01 03:32:50;;;;;;;;;;;3.10;99.90;;;;;;5092574;28;20072;-80
2022/04/01 03:35:16;;;;;;;;;;;3.10;99.90;;;;;;5091408;28;19923;-80
2022/04/01 03:37:42;;;;;;;;;;;3.10;99.90;;;;;;5090675;28;19973;-80
2022/04/01 03:40:08;;;;;;;;;;;3.10;99.90;;;;;;5092229;28;19940;-80
2022/04/01 03:42:34;;;;;;;;;;;3.00;99.90;;;;;;5091865;28;19919;-80
2022/04/01 03:45:03;;;;;;;;;;;3.10;99.90;;;;;;5094062;28;20311;-81
2022/04/01 03:47:41;;;;;;;;;;;3.00;99.90;;;;;;5093500;28;19912;-81
2022/04/01 03:50:09;;;;;;;;;;;3.00;99.90;;;;;;5094048;28;19920;-80
2022/04/01 03:52:35;;;;;;;;;;;3.10;99.90;;;;;;5091224;28;19927;-79
2022/04/01 03:55:07;;;;;;;;;;;3.10;99.90;;;;;;5093362;28;19916;-79
2022/04/01 03:57:34;;;;;;;;;;;3.10;99.90;;;;;;5091197;28;19972;-79
2022/04/01 04:00:00;;;;;;;;;;;3.10;94.40;;;;;;5093278;28;19912;-80
2022/04/01 04:02:25;;;;;;;;;;;3.00;40.30;;;;;;5096630;28;19927;-80
2022/04/01 04:04:53;;;;;;;;;;;2.90;1.00;;;;;;5097470;28;19912;-80
2022/04/01 04:07:19;;;;;;;;;;;2.90;99.90;;;;;;5095549;28;19912;-80
2022/04/01 04:09:45;;;;;;;;;;;2.90;99.90;;;;;;5098271;28;19946;-80
2022/04/01 04:12:13;;;;;;;;;;;2.90;99.90;;;;;;5095955;28;19958;-79
2022/04/01 04:14:41;;;;;;;;;;;2.90;99.90;;;;;;5097527;28;19958;-79
2022/04/01 04:17:14;;;;;;;;;;;3.00;99.90;;;;;;5094475;28;19912;-80
2022/04/01 04:19:45;;;;;;;;;;;2.90;96.60;;;;;;5095412;28;19918;-80
2022/04/01 04:22:12;;;;;;;;;;;2.90;64.50;;;;;;5093803;28;20435;-79
2022/04/01 04:24:48;;;;;;;;;;;2.90;1.00;;;;;;5095614;28;19916;-79
2022/04/01 04:27:16;;;;;;;;;;;2.90;1.00;;;;;;5093309;28;20014;-80
2022/04/01 04:29:45;;;;;;;;;;;2.90;1.00;;;;;;5090127;28;19926;-80
2022/04/01 04:32:13;;;;;;;;;;;2.80;1.00;;;;;;5094230;28;19973;-79
2022/04/01 04:34:42;;;;;;;;;;;2.80;1.00;;;;;;5093689;28;19911;-80
2022/04/01 04:37:11;;;;;;;;;;;2.80;1.00;;;;;;5094053;28;20307;-79
2022/04/01 04:39:38;;;;;;;;;;;2.80;1.00;;;;;;5094319;28;19923;-80
2022/04/01 04:42:04;;;;;;;;;;;2.80;1.00;;;;;;5094941;28;19916;-80
2022/04/01 04:44:30;;;;;;;;;;;2.80;1.00;;;;;;5093327;28;20352;-79
2022/04/01 04:46:56;;;;;;;;;;;2.80;1.00;;;;;;5094426;28;19916;-79
2022/04/01 04:49:22;;;;;;;;;;;2.80;1.00;;;;;;5094156;28;19927;-79
2022/04/01 04:51:48;;;;;;;;;;;2.80;1.00;;;;;;5095191;28;20296;-80
2022/04/01 04:54:14;;;;;;;;;;;2.70;1.00;;;;;;5094148;28;19908;-80
2022/04/01 04:56:39;;;;;;;;;;;2.70;1.00;;;;;;5096327;28;19916;-80
2022/04/01 04:59:05;;;;;;;;;;;2.70;1.00;;;;;;5094807;28;19991;-80
2022/04/01 05:01:39;;;;;;;;;;;2.70;1.00;;;;;;5095615;28;19979;-79
2022/04/01 05:04:07;;;;;;;;;;;2.70;1.00;;;;;;5096052;28;19961;-80
2022/04/01 05:06:39;;;;;;;;;;;2.80;1.00;;;;;;5094244;28;19912;-80
2022/04/01 05:09:07;;;;;;;;;;;2.70;1.00;;;;;;5096814;28;19916;-81
2022/04/01 05:11:50;;;;;;;;;;;2.70;1.00;;;;;;5091499;28;19931;-80
2022/04/01 05:14:39;;;;;;;;;;;2.70;1.00;;;;;;5093994;28;19997;-80
2022/04/01 05:17:07;;;;;;;;;;;2.70;1.00;;;;;;5072701;28;20003;-80
2022/04/01 05:19:36;;;;;;;;;;;2.70;1.00;;;;;;5096388;28;20422;-80
2022/04/01 05:22:02;;;;;;;;;;;2.70;1.00;;;;;;5096283;28;19969;-80
2022/04/01 05:24:48;;;;;;;;;;;2.70;1.00;;;;;;5093487;28;20456;-81
2022/04/01 05:27:28;;;;;;;;;;;2.70;1.00;;;;;;5089192;28;19958;-80
2022/04/01 05:30:02;;;;;;;;;;;2.60;1.00;;;;;;5092535;28;19916;-80
2022/04/01 05:32:34;;;;;;;;;;;2.60;1.00;;;;;;5093410;28;20640;-80
2022/04/01 05:35:01;;;;;;;;;;;2.60;19.40;;;;;;5094477;28;19934;-83
2022/04/01 05:37:28;;;;;;;;;;;2.60;1.00;;;;;;5095419;28;20018;-85
2022/04/01 05:39:55;;;;;;;;;;;2.60;1.00;;;;;;5097182;28;19973;-82
2022/04/01 05:42:22;;;;;;;;;;;2.70;1.00;;;;;;5095508;28;19935;-81
2022/04/01 05:44:48;;;;;;;;;;;2.80;1.00;;;;;;5096202;28;19919;-82
2022/04/01 05:47:15;;;;;;;;;;;2.80;1.00;;;;;;5092022;28;19919;-82
2022/04/01 05:49:43;;;;;;;;;;;2.80;99.90;;;;;;5096119;28;19912;-82
2022/04/01 05:52:09;;;;;;;;;;;2.80;99.90;;;;;;5097648;28;19965;-82
2022/04/01 05:54:34;;;;;;;;;;;2.70;1.00;;;;;;5096077;28;19912;-82
2022/04/01 05:57:01;;;;;;;;;;;2.70;99.90;;;;;;5099319;28;19915;-82
2022/04/01 05:59:26;;;;;;;;;;;2.70;89.40;;;;;;5102464;28;19923;-81
2022/04/01 06:02:12;;;;;;;;;;;2.70;72.20;;;;;;5094190;28;19912;-81
2022/04/01 06:04:37;;;;;;;;;;;2.70;99.90;;;;;;5091787;28;19913;-81
2022/04/01 06:07:21;;;;;;;;;;;2.60;99.90;;;;;;5091970;28;19908;-81
2022/04/01 06:09:53;;;;;;;;;;;2.60;99.90;;;;;;5091958;28;19919;-81
2022/04/01 06:12:29;;;;;;;;;;;2.60;99.90;;;;;;5090802;28;19946;-80
2022/04/01 06:15:09;;;;;;;;;;;2.60;99.90;;;;;;5091830;28;19919;-79
2022/04/01 06:17:53;;;;;;;;;;;2.60;1.00;;;;;;5093457;28;19912;-80
2022/04/01 06:20:20;;;;;;;;;;;2.60;99.90;;;;;;5089656;28;19994;-81
2022/04/01 06:22:49;;;;;;;;;;;2.60;1.00;;;;;;5090668;28;19916;-81
2022/04/01 06:25:18;;;;;;;;;;;2.60;1.00;;;;;;5081949;28;19908;-81
2022/04/01 06:27:45;;;;;;;;;;;2.60;1.00;;;;;;5094416;28;19965;-81
2022/04/01 06:30:12;;;;;;;;;;;2.70;1.00;;;;;;5094729;28;19916;-81
2022/04/01 06:32:40;;;;;;;;;;;2.70;99.90;;;;;;5092541;28;20292;-80
2022/04/01 06:35:06;;;;;;;;;;;2.70;1.00;;;;;;5091199;28;19912;-80
2022/04/01 06:37:55;;;;;;;;;;;2.70;99.90;;;;;;5090790;28;19912;-80
2022/04/01 06:40:22;;;;;;;;;;;2.70;99.90;;;;;;5091927;28;20000;-80
2022/04/01 06:42:50;;;;;;;;;;;2.70;1.00;;;;;;5090792;28;19952;-80
2022/04/01 06:45:16;;;;;;;;;;;2.80;99.90;;;;;;5094790;28;19961;-82
2022/04/01 06:47:41;;;;;;;;;;;2.80;99.90;;;;;;5094193;28;20338;-80
2022/04/01 06:50:07;;;;;;;;;;;2.80;1.00;;;;;;5093617;28;19921;-80
2022/04/01 06:52:33;;;;;;;;;;;2.80;99.90;;;;;;5096170;28;19964;-80
2022/04/01 06:54:58;;;;;;;;;;;2.80;99.90;;;;;;5094716;28;20003;-80
2022/04/01 06:57:24;;;;;;;;;;;2.80;1.00;;;;;;5089901;28;19969;-82
2022/04/01 06:59:50;;;;;;;;;;;2.80;1.00;;;;;;5092233;28;19920;-82
2022/04/01 07:02:15;;;;;;;;;;;2.80;99.90;;;;;;5095014;28;20509;-79
2022/04/01 07:04:41;;;;;;;;;;;2.90;1.00;;;;;;5092343;28;19931;-80
2022/04/01 07:07:07;;;;;;;;;;;2.90;99.90;;;;;;5090629;28;19982;-80
2022/04/01 07:09:33;;;;;;;;;;;2.90;99.90;;;;;;5091945;28;19912;-80
2022/04/01 07:12:01;;;;;;;;;;;2.90;99.90;;;;;;5107041;28;20332;-80
2022/04/01 07:14:27;;;;;;;;;;;3.00;99.90;;;;;;5096581;28;19912;-80
2022/04/01 07:16:54;;;;;;;;;;;2.90;1.00;;;;;;5096377;28;19912;-80
2022/04/01 07:19:19;;;;;;;;;;;2.90;14.60;;;;;;5094674;28;19912;-80
2022/04/01 07:21:44;;;;;;;;;;;2.90;1.00;;;;;;5092903;28;19916;-80
2022/04/01 07:24:10;;;;;;;;;;;2.90;1.00;;;;;;5087231;28;20006;-80
2022/04/01 07:26:37;;;;;;;;;;;3.00;1.00;;;;;;5087519;28;19919;-80
2022/04/01 07:29:03;;;;;;;;;;;3.00;1.00;;;;;;5126811;27;19951;-80
2022/04/01 07:34:13;;;;;;;;;;;3.00;1.00;;;;;;5091139;28;20302;-79
2022/04/01 07:36:38;;;;;;;;;;;3.00;99.90;;;;;;5091572;28;19912;-79
2022/04/01 07:39:04;;;;;;;;;;;3.10;99.90;;;;;;5097275;28;20379;-79
2022/04/01 07:41:34;;;;;;;;;;;3.10;99.90;;;;;;5094364;28;20261;-79
2022/04/01 07:44:01;;;;;;;;;;;3.20;99.90;;;;;;5093824;28;19912;-80
2022/04/01 07:46:26;;;;;;;;;;;3.20;99.90;;;;;;5089901;28;19916;-77
2022/04/01 07:48:52;;;;;;;;;;;3.20;1.00;;;;;;5092586;28;19919;-81
2022/04/01 07:51:17;;;;;;;;;;;3.20;1.00;;;;;;5094705;28;19916;-80
2022/04/01 07:53:43;;;;;;;;;;;3.20;1.00;;;;;;5090676;28;19920;-80
2022/04/01 07:56:08;;;;;;;;;;;3.00;1.00;;;;;;5099360;28;20322;-80
2022/04/01 07:58:34;;;;;;;;;;;3.00;1.00;;;;;;5087405;28;19939;-80
2022/04/01 08:00:59;;;;;;;;;;;3.00;1.00;;;;;;5091225;28;19920;-80
2022/04/01 08:03:25;;;;;;;;;;;2.90;1.00;;;;;;5089499;28;19916;-79
2022/04/01 08:05:50;;;;;;;;;;;2.90;1.00;;;;;;5082674;28;19949;-79
2022/04/01 08:08:17;;;;;;;;;;;2.90;1.00;;;;;;5088066;28;19920;-80
2022/04/01 08:10:42;;;;;;;;;;;2.90;1.00;;;;;;5093014;28;19916;-80
2022/04/01 08:13:09;;;;;;;;;;;3.00;1.00;;;;;;5089463;28;19912;-80
2022/04/01 08:15:35;;;;;;;;;;;3.00;1.00;;;;;;5094818;28;19916;-80
2022/04/01 08:18:00;;;;;;;;;;;3.10;99.90;;;;;;5090039;28;20003;-80
2022/04/01 08:20:25;;;;;;;;;;;3.10;99.90;;;;;;5090495;28;19919;-80
2022/04/01 08:22:51;;;;;;;;;;;3.10;99.90;;;;;;5092817;28;19912;-80
2022/04/01 08:25:17;;;;;;;;;;;3.00;31.80;;;;;;5095398;28;19912;-80
2022/04/01 08:27:42;;;;;;;;;;;3.00;99.90;;;;;;5093222;28;19913;-80
2022/04/01 08:30:08;;;;;;;;;;;3.10;99.90;;;;;;5094840;28;19912;-80
2022/04/01 08:32:35;;;;;;;;;;;3.10;99.90;;;;;;5092289;28;19938;-80
2022/04/01 08:35:01;;;;;;;;;;;3.10;10.70;;;;;;5092656;28;19916;-80
2022/04/01 08:37:26;;;;;;;;;;;3.10;4.60;;;;;;5092898;28;20408;-80
2022/04/01 08:39:53;;;;;;;;;;;3.10;97.90;;;;;;5093945;28;19913;-80
2022/04/01 08:42:18;;;;;;;;;;;3.10;1.00;;;;;;5094510;28;19912;-80
2022/04/01 08:44:45;;;;;;;;;;;3.10;1.00;;;;;;5093842;28;19927;-81
2022/04/01 08:47:11;;;;;;;;;;;3.10;1.00;;;;;;5095286;28;19912;-81
2022/04/01 08:49:36;;;;;;;;;;;3.20;4.00;;;;;;5093642;28;19912;-81
2022/04/01 08:52:03;;;;;;;;;;;3.20;1.00;;;;;;5089748;28;19916;-80
2022/04/01 08:54:30;;;;;;;;;;;3.20;1.00;;;;;;5090191;28;19912;-81
2022/04/01 08:56:56;;;;;;;;;;;3.30;1.00;;;;;;5092908;28;20046;-81
2022/04/01 08:59:26;;;;;;;;;;;3.20;1.00;;;;;;5092399;28;19942;-81
2022/04/01 09:01:52;;;;;;;;;;;3.20;99.90;;;;;;5088035;28;19920;-81
2022/04/01 09:04:21;;;;;;;;;;;3.20;99.90;;;;;;5095058;28;19999;-80
2022/04/01 09:06:47;;;;;;;;;;;3.20;99.90;;;;;;5092295;28;19916;-81
2022/04/01 09:09:26;;;;;;;;;;;3.20;99.90;;;;;;5088776;28;20840;-81
2022/04/01 09:12:08;;;;;;;;;;;3.20;99.90;;;;;;5090520;28;19960;-81
2022/04/01 09:14:34;;;;;;;;;;;3.10;99.90;;;;;;5094833;28;20007;-80
2022/04/01 09:17:01;;;;;;;;;;;3.20;99.90;;;;;;5092960;28;19955;-81
2022/04/01 09:19:31;;;;;;;;;;;3.20;99.90;;;;;;5092165;28;19945;-81
2022/04/01 09:21:57;;;;;;;;;;;3.20;99.90;;;;;;5093437;28;19921;-81
2022/04/01 09:24:22;;;;;;;;;;;3.20;99.90;;;;;;5091636;28;19912;-81
2022/04/01 09:26:52;;;;;;;;;;;3.30;99.90;;;;;;5092078;28;19918;-81
2022/04/01 09:29:19;;;;;;;;;;;3.30;99.90;;;;;;5088804;28;19916;-81
2022/04/01 09:31:49;;;;;;;;;;;3.30;99.90;;;;;;5093491;28;19916;-81
2022/04/01 09:34:15;;;;;;;;;;;3.30;99.90;;;;;;5093654;28;20054;-81
2022/04/01 09:36:41;;;;;;;;;;;3.30;99.90;;;;;;5093942;28;20029;-83
2022/04/01 09:39:07;;;;;;;;;;;3.20;99.90;;;;;;5093890;28;20011;-83
2022/04/01 09:41:36;;;;;;;;;;;3.30;99.90;;;;;;5089715;28;19944;-82
2022/04/01 09:44:02;;;;;;;;;;;3.40;99.90;;;;;;5091515;28;19912;-81
2022/04/01 09:46:27;;;;;;;;;;;3.40;1.00;;;;;;5095279;28;19912;-82
2022/04/01 09:48:57;;;;;;;;;;;3.30;1.00;;;;;;5100171;28;19908;-83
2022/04/01 09:51:23;;;;;;;;;;;3.30;1.00;;;;;;5097826;28;19916;-83
2022/04/01 09:53:52;;;;;;;;;;;3.20;1.00;;;;;;5098592;28;19923;-83
2022/04/01 09:56:18;;;;;;;;;;;3.30;1.00;;;;;;5114611;28;19908;-83
2022/04/01 09:58:44;;;;;;;;;;;3.30;1.00;;;;;;5090471;28;20335;-83
2022/04/01 10:01:10;;;;;;;;;;;3.40;1.00;;;;;;5094959;28;19912;-83
2022/04/01 10:03:35;;;;;;;;;;;3.40;1.00;;;;;;5092351;28;19916;-83
2022/04/01 10:06:01;;;;;;;;;;;3.40;1.00;;;;;;5095356;28;19979;-82
2022/04/01 10:08:28;;;;;;;;;;;3.40;1.00;;;;;;5093913;28;19915;-81
2022/04/01 10:10:54;;;;;;;;;;;3.30;1.00;;;;;;5090398;28;19971;-83
2022/04/01 10:13:19;;;;;;;;;;;3.30;1.00;;;;;;5089755;28;19912;-83
2022/04/01 10:15:45;;;;;;;;;;;3.30;1.00;;;;;;5095335;28;19916;-83
2022/04/01 10:18:12;;;;;;;;;;;3.30;1.00;;;;;;5093700;28;20006;-82
2022/04/01 10:20:38;;;;;;;;;;;3.20;1.00;;;;;;5092733;28;19912;-82
2022/04/01 10:23:05;;;;;;;;;;;3.20;1.00;;;;;;5093218;28;20364;-83
2022/04/01 10:25:33;;;;;;;;;;;3.30;1.00;;;;;;5090519;28;20451;-83
2022/04/01 10:28:02;;;;;;;;;;;3.30;1.00;;;;;;5092580;28;19927;-83
2022/04/01 10:30:28;;;;;;;;;;;3.40;1.00;;;;;;5093406;28;19963;-83
2022/04/01 10:32:54;;;;;;;;;;;3.60;1.00;;;;;;5096650;28;19976;-82
2022/04/01 10:35:26;;;;;;;;;;;3.70;99.90;;;;;;5095858;28;20368;-80
2022/04/01 10:37:53;;;;;;;;;;;3.70;99.90;;;;;;5093466;28;20003;-81
2022/04/01 10:40:19;;;;;;;;;;;3.60;99.90;;;;;;5092877;28;19912;-81
2022/04/01 10:42:46;;;;;;;;;;;3.70;99.90;;;;;;5090280;28;20314;-81
2022/04/01 10:45:17;;;;;;;;;;;3.60;99.90;;;;;;5092021;28;19912;-81
2022/04/01 10:53:33;;;;;;;;;;;3.80;99.90;;;;;;5091253;28;19920;-80
2022/04/01 10:56:17;;;;;;;;;;;3.90;99.90;;;;;;5090455;28;19954;-81
2022/04/01 10:59:00;;;;;;;;;;;4.00;99.90;;;;;;5095813;28;19924;-81
2022/04/01 11:01:25;;;;;;;;;;;4.20;99.50;;;;;;5089250;28;19916;-82
2022/04/01 11:03:52;;;;;;;;;;;4.30;88.20;;;;;;5091414;28;19934;-82
2022/04/01 11:06:21;;;;;;;;;;;4.30;1.00;;;;;;5094001;28;19912;-82
2022/04/01 11:08:52;;;;;;;;;;;4.30;1.00;;;;;;5102782;28;19943;-81
2022/04/01 11:11:18;;;;;;;;;;;4.30;1.00;;;;;;5097822;28;19915;-83
2022/04/01 11:14:00;;;;;;;;;;;4.20;1.00;;;;;;5097295;28;19920;-83
2022/04/01 11:16:25;;;;;;;;;;;4.10;1.00;;;;;;5093210;28;20288;-82
2022/04/01 11:19:10;;;;;;;;;;;4.20;1.00;;;;;;5096641;28;19912;-84
2022/04/01 11:21:36;;;;;;;;;;;4.10;1.00;;;;;;5096499;28;20296;-82
2022/04/01 11:24:03;;;;;;;;;;;4.00;1.00;;;;;;5097801;28;19912;-83
2022/04/01 11:26:41;;;;;;;;;;;4.10;1.00;;;;;;5095834;28;19934;-82
2022/04/01 11:29:16;;;;;;;;;;;4.00;1.00;;;;;;5095883;28;19920;-82
2022/04/01 11:31:42;;;;;;;;;;;4.10;1.00;;;;;;5096667;28;19963;-84
2022/04/01 11:34:07;;;;;;;;;;;4.00;1.00;;;;;;5097188;28;20337;-82
2022/04/01 11:36:33;;;;;;;;;;;4.00;1.00;;;;;;5099001;28;19912;-83
2022/04/01 11:38:59;;;;;;;;;;;4.00;1.00;;;;;;5097540;28;19919;-82
2022/04/01 11:41:25;;;;;;;;;;;4.10;1.00;;;;;;5098803;28;20403;-83
2022/04/01 11:43:50;;;;;;;;;;;4.00;1.00;;;;;;5093122;28;19917;-82
2022/04/01 11:46:16;;;;;;;;;;;4.00;1.00;;;;;;5096428;28;19912;-81
2022/04/01 11:48:44;;;;;;;;;;;3.90;1.00;;;;;;5092730;28;19921;-83
2022/04/01 11:51:14;;;;;;;;;;;3.80;1.00;;;;;;5095401;28;19916;-82
2022/04/01 11:53:45;;;;;;;;;;;3.90;1.00;;;;;;5090282;28;20343;-81
2022/04/01 11:56:11;;;;;;;;;;;4.00;1.00;;;;;;5095515;28;19919;-81
2022/04/01 11:58:46;;;;;;;;;;;4.00;1.00;;;;;;5093103;28;20376;-81
2022/04/01 12:01:11;;;;;;;;;;;3.90;1.00;;;;;;5093166;28;19920;-81
2022/04/01 12:03:37;;;;;;;;;;;3.90;1.00;;;;;;5094102;28;19912;-84
2022/04/01 12:08:46;;;;;;;;;;;3.90;1.00;;;;;;5095021;28;19923;-82
2022/04/01 12:11:11;;;;;;;;;;;3.90;1.00;;;;;;5095074;28;20377;-82
2022/04/01 12:13:42;;;;;;;;;;;3.90;1.00;;;;;;5098387;28;19911;-82
2022/04/01 12:16:08;;;;;;;;;;;3.90;1.00;;;;;;5096177;28;19916;-80
2022/04/01 12:18:35;;;;;;;;;;;3.90;1.00;;;;;;5091538;28;19919;-81
2022/04/01 12:21:01;;;;;;;;;;;3.80;1.00;;;;;;5094412;28;19919;-82
2022/04/01 12:23:30;;;;;;;;;;;3.90;1.00;;;;;;5097005;28;19912;-83
2022/04/01 12:25:56;;;;;;;;;;;3.80;1.00;;;;;;5094505;28;20006;-81
2022/04/01 12:28:26;;;;;;;;;;;3.80;1.00;;;;;;5095854;28;20380;-82
2022/04/01 12:30:52;;;;;;;;;;;3.70;1.00;;;;;;5093429;28;20015;-82
2022/04/01 12:33:24;;;;;;;;;;;3.60;1.00;;;;;;5094436;28;20406;-81
2022/04/01 12:36:00;;;;;;;;;;;3.50;1.00;;;;;;5091831;28;19980;-81
2022/04/01 12:38:26;;;;;;;;;;;3.50;1.00;;;;;;5103877;28;19919;-81
2022/04/01 12:40:54;;;;;;;;;;;3.40;1.00;;;;;;5091747;28;20438;-82
2022/04/01 12:43:30;;;;;;;;;;;3.40;1.00;;;;;;5094831;28;19920;-81
2022/04/01 12:46:29;;;;;;;;;;;3.40;1.00;;;;;;5093666;28;19924;-82
2022/04/01 12:48:55;;;;;;;;;;;3.40;1.00;;;;;;5077127;28;19920;-82
2022/04/01 12:51:31;;;;;;;;;;;3.30;1.00;;;;;;5095600;28;19920;-81
2022/04/01 12:53:56;;;;;;;;;;;3.40;1.00;;;;;;5093983;28;19912;-82
2022/04/01 12:56:24;;;;;;;;;;;3.40;1.00;;;;;;5093315;28;19912;-82
2022/04/01 12:58:50;;;;;;;;;;;3.50;1.00;;;;;;5093049;28;19920;-82
2022/04/01 13:01:20;;;;;;;;;;;3.50;1.00;;;;;;5096990;28;20283;-80
2022/04/01 13:03:46;;;;;;;;;;;3.60;1.00;;;;;;5094968;28;19916;-82
2022/04/01 13:06:12;;;;;;;;;;;3.60;1.00;;;;;;5093999;28;19919;-83
2022/04/01 13:08:37;;;;;;;;;;;3.60;1.00;;;;;;5093367;28;19918;-83
2022/04/01 13:11:15;;;;;;;;;;;3.60;1.00;;;;;;5093169;28;20299;-80
2022/04/01 13:13:40;;;;;;;;;;;3.60;1.00;;;;;;5092234;28;19912;-82
2022/04/01 13:16:08;;;;;;;;;;;3.60;1.00;;;;;;5093185;28;19972;-83
2022/04/01 13:18:34;;;;;;;;;;;3.70;1.00;;;;;;5093515;28;19934;-81
2022/04/01 13:21:00;;;;;;;;;;;3.70;1.00;;;;;;5093317;28;19913;-83
2022/04/01 13:23:28;;;;;;;;;;;3.70;1.00;;;;;;5103577;28;19947;-82
2022/04/01 13:25:54;;;;;;;;;;;3.70;1.00;;;;;;5087403;28;19913;-80
2022/04/01 13:28:19;;;;;;;;;;;3.70;1.00;;;;;;5093061;28;20064;-81
2022/04/01 13:30:45;;;;;;;;;;;3.70;1.00;;;;;;5090912;28;19916;-81
2022/04/01 13:33:11;;;;;;;;;;;3.80;1.00;;;;;;5090745;28;20007;-83
2022/04/01 13:35:37;;;;;;;;;;;3.90;1.00;;;;;;5092894;28;20284;-82
2022/04/01 13:38:02;;;;;;;;;;;4.00;1.00;;;;;;5096495;28;19918;-82
2022/04/01 13:40:28;;;;;;;;;;;4.10;1.00;;;;;;5090339;28;19912;-81
2022/04/01 13:42:53;;;;;;;;;;;4.10;1.00;;;;;;5090070;28;19916;-81
2022/04/01 13:45:19;;;;;;;;;;;4.00;1.00;;;;;;5094445;28;19935;-82
2022/04/01 13:47:44;;;;;;;;;;;3.90;1.00;;;;;;5091052;28;19920;-81
2022/04/01 13:50:10;;;;;;;;;;;3.70;1.00;;;;;;5090324;28;19912;-81
2022/04/01 13:52:36;;;;;;;;;;;3.70;1.00;;;;;;5089829;28;19912;-81
2022/04/01 13:55:02;;;;;;;;;;;3.60;1.00;;;;;;5089611;28;19957;-82
2022/04/01 13:57:27;;;;;;;;;;;3.70;1.00;;;;;;5090673;28;19919;-82
2022/04/01 13:59:53;;;;;;;;;;;3.70;1.00;;;;;;5095014;28;19916;-81
2022/04/01 14:02:18;;;;;;;;;;;3.80;1.00;;;;;;5094277;28;19956;-82
2022/04/01 14:04:44;;;;;;;;;;;3.90;1.00;;;;;;5083715;28;20300;-82
2022/04/01 14:07:10;;;;;;;;;;;4.00;1.00;;;;;;5095938;28;19951;-82
2022/04/01 14:09:36;;;;;;;;;;;4.00;1.00;;;;;;5093856;28;19918;-81
2022/04/01 14:12:03;;;;;;;;;;;3.90;1.00;;;;;;5094513;28;19938;-82
2022/04/01 14:14:29;;;;;;;;;;;4.00;1.00;;;;;;5093833;28;19912;-82
2022/04/01 14:16:54;;;;;;;;;;;4.10;1.00;;;;;;5094692;28;20351;-81
2022/04/01 14:19:20;;;;;;;;;;;4.20;1.00;;;;;;5096398;28;19912;-82
2022/04/01 14:21:47;;;;;;;;;;;4.30;1.00;;;;;;5095730;28;20006;-81
2022/04/01 14:24:13;;;;;;;;;;;4.50;1.00;;;;;;5093117;28;19981;-82
2022/04/01 14:26:38;;;;;;;;;;;4.40;1.00;;;;;;5094430;28;19912;-82
2022/04/01 14:31:57;;;;;;;;;;;4.30;1.00;;;;;;5092601;28;20352;-85
2022/04/01 14:34:34;;;;;;;;;;;4.40;1.00;;;;;;5086847;28;19919;-82
2022/04/01 14:37:00;;;;;;;;;;;4.60;1.00;;;;;;5126290;27;19912;-81
2022/04/01 14:39:26;;;;;;;;;;;4.80;1.00;;;;;;5091860;28;20060;-82
2022/04/01 14:41:51;;;;;;;;;;;5.00;1.00;;;;;;5091313;28;19912;-84
2022/04/01 14:44:17;;;;;;;;;;;5.10;1.00;;;;;;5091717;28;19915;-85
2022/04/01 14:46:43;;;;;;;;;;;5.10;1.00;;;;;;5125481;27;20429;-84
2022/04/01 14:49:08;;;;;;;;;;;5.10;1.00;;;;;;5095096;28;19912;-80
2022/04/01 14:51:34;;;;;;;;;;;5.10;1.00;;;;;;5102411;28;19920;-80
2022/04/01 14:53:59;;;;;;;;;;;5.10;1.00;;;;;;5111716;28;19999;-84
2022/04/01 14:56:25;;;;;;;;;;;5.20;1.00;;;;;;5099566;28;20344;-82
2022/04/01 14:58:50;;;;;;;;;;;5.20;1.00;;;;;;5094982;28;19908;-82
2022/04/01 15:01:16;;;;;;;;;;;5.00;99.90;;;;;;5111181;28;20006;-83